Flight Track Log - Related Links

Times and Time Zones

All times are in EDT time to prevent confusion due to time zone crossing. See the SWA2383 flight status page for this flight to view local times or setup timezone preferences in your user account.

Time Position Orientation Groundspeed Altitude Reporting Facility
EDT Latitude Longitude Course Direction KTS MPH feet Rate Location/Type
Sat 11:30:47 AM 39.3167 -94.7167 38° Northeast 160 184 1,700  Level Kansas City TRACON
Sat 11:31:41 AM 39.3500 -94.6833 38° Northeast 193 222 4,200 2,657 Climbing Kansas City TRACON
Sat 11:31:57 AM 39.3617 -94.6744 31° Northeast 194 223 4,800 2,769 Climbing Kansas City Center
Sat 11:32:59 AM 39.3344 -94.6053 117° Southeast 233 268 7,800 2,878 Climbing Kansas City Center
Sat 11:34:00 AM 39.2964 -94.5300 123° Southeast 257 296 10,700 3,415 Climbing Kansas City Center
Sat 11:35:02 AM 39.2431 -94.4247 123° Southeast 311 358 14,800 4,049 Climbing Kansas City Center
Sat 11:36:03 AM 39.1967 -94.3314 123° Southeast 321 369 19,000 3,854 Climbing Kansas City Center
Sat 11:37:05 AM 39.1397 -94.2181 123° Southeast 336 387 22,700 3,268 Climbing Kansas City Center
Sat 11:38:06 AM 39.0933 -94.1147 120° Southeast 346 398 25,700 2,976 Climbing Kansas City Center
Sat 11:39:08 AM 39.0808 -93.9767 97° East 347 399 28,800 1,597 Climbing Kansas City Center
Sat 11:40:10 AM 39.0606 -93.8575 102° East 357 411 29,000 98 Climbing Kansas City Center
Sat 11:41:11 AM 39.0403 -93.7353 102° East 365 420 29,000  Level Kansas City Center
Sat 11:42:13 AM 39.0167 -93.5939 102° East 362 417 29,000  Level Kansas City Center
Sat 11:43:15 AM 38.9964 -93.4744 102° East 363 418 29,000  Level Kansas City Center
Sat 11:44:16 AM 38.9744 -93.3494 103° East 360 414 29,000  Level Kansas City Center
Sat 11:45:18 AM 38.9542 -93.2211 101° East 362 417 29,000  Level Kansas City Center
Sat 11:46:20 AM 38.9283 -93.0711 102° East 358 412 29,000 -146 Level Kansas City Center
Sat 11:47:21 AM 38.9069 -92.9472 102° East 356 410 28,700 -634 Descending Kansas City Center
Sat 11:48:23 AM 38.8850 -92.8219 103° East 357 411 27,700 -976 Descending Kansas City Center
Sat 11:49:24 AM 38.8625 -92.6961 103° East 359 413 26,700 -976 Descending Kansas City Center
Sat 11:50:26 AM 38.8414 -92.5706 102° East 359 413 25,700 -968 Descending Kansas City Center
Sat 11:51:28 AM 38.8189 -92.4472 103° East 356 410 24,700 -829 Descending Kansas City Center
Sat 11:52:29 AM 38.7969 -92.3233 103° East 354 407 24,000 -341 Descending Kansas City Center
Sat 11:53:31 AM 38.7761 -92.2036 103° East 350 403 24,000  Level Kansas City Center
Sat 11:54:32 AM 38.7544 -92.0839 103° East 346 398 24,000  Level Kansas City Center
Sat 11:55:34 AM 38.7325 -91.9642 103° East 344 396 24,000  Level Kansas City Center
Sat 11:56:35 AM 38.7097 -91.8428 103° East 346 398 24,000  Level Kansas City Center
Sat 11:57:37 AM 38.6903 -91.7208 102° East 348 400 24,000 -293 Level Kansas City Center
Sat 11:58:38 AM 38.6933 -91.5700 88° East 351 404 23,400 -488 Descending Kansas City Center
Sat 11:59:40 AM 38.6925 -91.4469 90° East 346 398 23,000 -1,073 Descending Kansas City Center
Sat 12:00:41 PM 38.6931 -91.3389 90° East 332 382 21,200 -2,488 Descending Kansas City Center
Sat 12:01:43 PM 38.6928 -91.2275 90° East 318 366 17,900 -3,707 Descending Kansas City Center
Sat 12:02:44 PM 38.6953 -91.1083 88° East 330 380 13,600 -4,098 Descending Kansas City Center
Sat 12:03:46 PM 38.7414 -90.9978 62° Northeast 349 402 9,500 -2,634 Descending Kansas City Center
Sat 12:04:47 PM 38.7706 -90.8989 69° East 303 349 8,200 -1,463 Descending Kansas City Center
Sat 12:05:49 PM 38.7883 -90.7947 78° East 257 296 6,500 -1,512 Descending Kansas City Center
Sat 12:06:50 PM 38.8008 -90.7128 79° East 239 275 5,100 -1,317 Descending Kansas City Center
Sat 12:07:52 PM 38.8142 -90.6331 78° East 233 268 3,800 -1,024 Descending Kansas City Center
Sat 12:08:53 PM 38.8258 -90.5572 79° East 225 259 3,000 -390 Descending Kansas City Center
Sat 12:09:55 PM 38.8156 -90.4967 102° East 192 221 3,000 -439 Level Kansas City Center
Sat 12:10:56 PM 38.7922 -90.4489 122° Southeast 170 196 2,100 -780 Descending Kansas City Center
Sat 12:11:58 PM 38.7733 -90.4094 122° Southeast 149 171 1,400 -732 Descending Kansas City Center
Sat 12:12:59 PM 38.7544 -90.3703 122° Southeast 135 155 600 -787 Descending Kansas City Center
Sat 12:14:00 PM 38.7487 -90.3700 123° Southeast  Level Estimated
Sat 12:21:00 PM 38.7487 -90.3700 333° Northwest  Level Estimated

Login

Don't have an account? Register now (free) for customized features, flight alerts, and more!